Time;durP1;ratioP1;P1;durP2;ratioP2;P2;SDS_P1;SDS_P2;PMS_P1;PMS_P2;Temp;Humidity;BMP_temperature;BMP_pressure;BME280_temperature;BME280_humidity;BME280_pressure;Samples;Min_cycle;Max_cycle;Signal;HPM_P1;HPM_P2
2023/09/02 00:02:15;;;;;;;;;;;14.10;99.90;;;;;;5094455;28;19947;-61
2023/09/02 00:04:40;;;;;;;;;;;13.90;99.90;;;;;;5094117;28;19977;-62
2023/09/02 00:07:06;;;;;;;;;;;13.80;99.90;;;;;;5094432;28;20391;-62
2023/09/02 00:09:31;;;;;;;;;;;13.50;99.90;;;;;;5093682;28;20064;-62
2023/09/02 00:11:57;;;;;;;;;;;13.80;99.90;;;;;;5094340;28;19928;-62
2023/09/02 00:14:22;;;;;;;;;;;13.40;99.90;;;;;;5094279;28;19927;-61
2023/09/02 00:16:48;;;;;;;;;;;13.50;99.90;;;;;;5093891;28;19927;-62
2023/09/02 00:19:13;;;;;;;;;;;13.60;99.90;;;;;;5094211;28;19973;-62
2023/09/02 00:21:39;;;;;;;;;;;13.80;99.90;;;;;;5094063;28;20485;-62
2023/09/02 00:24:05;;;;;;;;;;;13.60;99.90;;;;;;5093986;28;19928;-63
2023/09/02 00:26:31;;;;;;;;;;;13.50;99.90;;;;;;5094025;28;19928;-62
2023/09/02 00:28:57;;;;;;;;;;;13.30;99.90;;;;;;5093937;28;19927;-62
2023/09/02 00:31:23;;;;;;;;;;;13.40;99.90;;;;;;5094144;28;19950;-62
2023/09/02 00:33:48;;;;;;;;;;;13.40;99.90;;;;;;5094190;28;19920;-61
2023/09/02 00:36:14;;;;;;;;;;;13.40;99.90;;;;;;5093795;28;19926;-61
2023/09/02 00:38:40;;;;;;;;;;;13.50;99.90;;;;;;5092843;28;19926;-62
2023/09/02 00:41:09;;;;;;;;;;;13.40;99.90;;;;;;5093807;28;19943;-63
2023/09/02 00:43:35;;;;;;;;;;;13.20;99.90;;;;;;5093638;28;19923;-61
2023/09/02 00:46:01;;;;;;;;;;;13.00;99.90;;;;;;5093646;28;20321;-63
2023/09/02 00:48:27;;;;;;;;;;;13.00;99.90;;;;;;5093484;28;20030;-61
2023/09/02 00:50:52;;;;;;;;;;;13.40;99.90;;;;;;5093415;28;19969;-61
2023/09/02 00:53:18;;;;;;;;;;;13.30;99.90;;;;;;5093297;28;20023;-61
2023/09/02 00:55:45;;;;;;;;;;;13.30;99.90;;;;;;5093380;28;19927;-61
2023/09/02 00:58:11;;;;;;;;;;;13.10;99.90;;;;;;5093430;28;19928;-62
2023/09/02 01:00:37;;;;;;;;;;;13.30;99.90;;;;;;5093313;28;20018;-63
2023/09/02 01:03:03;;;;;;;;;;;13.10;99.90;;;;;;5093319;28;19924;-63
2023/09/02 01:05:29;;;;;;;;;;;13.10;99.90;;;;;;5093033;28;19920;-62
2023/09/02 01:07:55;;;;;;;;;;;12.90;99.90;;;;;;5093150;28;20010;-61
2023/09/02 01:10:21;;;;;;;;;;;12.90;99.90;;;;;;5091802;28;20052;-61
2023/09/02 01:12:46;;;;;;;;;;;13.20;99.90;;;;;;5093123;28;19923;-62
2023/09/02 01:15:12;;;;;;;;;;;13.10;99.90;;;;;;5093011;28;20352;-61
2023/09/02 01:17:37;;;;;;;;;;;13.20;99.90;;;;;;5092050;28;19924;-61
2023/09/02 01:20:05;;;;;;;;;;;13.30;99.90;;;;;;5092139;28;20284;-62
2023/09/02 01:22:46;;;;;;;;;;;13.00;99.90;;;;;;5092827;28;19934;-63
2023/09/02 01:25:14;;;;;;;;;;;13.00;99.90;;;;;;5092884;28;19935;-62
2023/09/02 01:27:46;;;;;;;;;;;12.80;99.90;;;;;;5092944;28;19926;-61
2023/09/02 01:30:19;;;;;;;;;;;13.00;99.90;;;;;;5092874;28;19977;-62
2023/09/02 01:32:47;;;;;;;;;;;12.90;99.90;;;;;;5092919;28;20024;-61
2023/09/02 01:35:18;;;;;;;;;;;12.80;99.90;;;;;;5092959;28;19920;-61
2023/09/02 01:37:45;;;;;;;;;;;12.80;99.90;;;;;;5092929;28;19927;-62
2023/09/02 01:40:15;;;;;;;;;;;13.20;99.90;;;;;;5092679;28;20011;-62
2023/09/02 01:42:42;;;;;;;;;;;12.80;99.90;;;;;;5092938;28;19927;-62
2023/09/02 01:45:09;;;;;;;;;;;12.80;99.90;;;;;;5092472;28;19927;-62
2023/09/02 01:47:35;;;;;;;;;;;12.90;99.90;;;;;;5092550;28;19924;-62
2023/09/02 01:50:01;;;;;;;;;;;12.80;99.90;;;;;;5092501;28;19928;-62
2023/09/02 01:52:27;;;;;;;;;;;12.80;99.90;;;;;;5092425;28;19935;-61
2023/09/02 01:54:53;;;;;;;;;;;13.10;99.90;;;;;;5092426;28;19920;-61
2023/09/02 01:57:19;;;;;;;;;;;12.70;99.90;;;;;;5092336;28;19973;-61
2023/09/02 01:59:44;;;;;;;;;;;12.50;99.90;;;;;;5092288;28;19931;-62
2023/09/02 02:02:10;;;;;;;;;;;12.60;99.90;;;;;;5092306;28;19924;-61
2023/09/02 02:04:42;;;;;;;;;;;12.50;99.90;;;;;;5091588;28;20360;-62
2023/09/02 02:07:13;;;;;;;;;;;12.50;99.90;;;;;;5092310;28;20367;-62
2023/09/02 02:09:50;;;;;;;;;;;12.50;99.90;;;;;;5090873;28;19920;-62
2023/09/02 02:12:16;;;;;;;;;;;12.80;99.90;;;;;;5091083;28;20039;-61
2023/09/02 02:14:42;;;;;;;;;;;12.50;99.90;;;;;;5092113;28;19971;-62
2023/09/02 02:17:07;;;;;;;;;;;12.40;99.90;;;;;;5092121;28;19966;-62
2023/09/02 02:19:33;;;;;;;;;;;12.60;99.90;;;;;;5092108;28;19920;-62
2023/09/02 02:21:59;;;;;;;;;;;12.50;99.90;;;;;;5092003;28;19924;-61
2023/09/02 02:24:25;;;;;;;;;;;12.50;99.90;;;;;;5091991;28;19981;-61
2023/09/02 02:26:51;;;;;;;;;;;12.70;99.90;;;;;;5092099;28;19931;-63
2023/09/02 02:29:16;;;;;;;;;;;12.50;99.90;;;;;;5092308;28;19932;-62
2023/09/02 02:31:42;;;;;;;;;;;12.40;99.90;;;;;;5092501;28;19924;-62
2023/09/02 02:34:07;;;;;;;;;;;12.60;99.90;;;;;;5096179;28;19924;-62
2023/09/02 02:36:33;;;;;;;;;;;12.80;99.90;;;;;;5095836;28;19982;-61
2023/09/02 02:38:59;;;;;;;;;;;12.60;99.90;;;;;;5096074;28;19920;-61
2023/09/02 02:41:24;;;;;;;;;;;12.60;99.90;;;;;;5096061;28;19927;-61
2023/09/02 02:43:50;;;;;;;;;;;12.70;99.90;;;;;;5095905;28;19977;-62
2023/09/02 02:46:15;;;;;;;;;;;12.70;99.90;;;;;;5095985;28;19943;-61
2023/09/02 02:48:41;;;;;;;;;;;12.50;99.90;;;;;;5095867;28;19927;-61
2023/09/02 02:51:07;;;;;;;;;;;12.60;99.90;;;;;;5095887;28;20477;-62
2023/09/02 02:53:34;;;;;;;;;;;12.70;99.90;;;;;;5095795;28;19976;-62
2023/09/02 02:56:02;;;;;;;;;;;12.30;99.90;;;;;;5095719;28;20325;-63
2023/09/02 02:58:28;;;;;;;;;;;12.30;99.90;;;;;;5095675;28;20364;-63
2023/09/02 03:01:06;;;;;;;;;;;12.50;99.90;;;;;;5095636;28;20014;-62
2023/09/02 03:03:33;;;;;;;;;;;12.20;99.90;;;;;;5095572;28;20018;-62
2023/09/02 03:05:59;;;;;;;;;;;12.40;99.90;;;;;;5095433;28;19920;-62
2023/09/02 03:08:25;;;;;;;;;;;12.20;99.90;;;;;;5095577;28;19992;-61
2023/09/02 03:10:57;;;;;;;;;;;11.90;99.90;;;;;;5095470;28;20361;-62
2023/09/02 03:13:24;;;;;;;;;;;12.40;99.90;;;;;;5095449;28;19931;-62
2023/09/02 03:15:50;;;;;;;;;;;12.00;99.90;;;;;;5095427;28;20367;-62
2023/09/02 03:18:15;;;;;;;;;;;11.90;99.90;;;;;;5095413;28;19920;-61
2023/09/02 03:20:41;;;;;;;;;;;12.20;99.90;;;;;;5094298;28;19920;-61
2023/09/02 03:23:07;;;;;;;;;;;11.90;99.90;;;;;;5095567;28;19928;-61
2023/09/02 03:25:32;;;;;;;;;;;12.00;99.90;;;;;;5095291;28;19924;-62
2023/09/02 03:27:59;;;;;;;;;;;12.30;99.90;;;;;;5095231;28;20018;-63
2023/09/02 03:30:25;;;;;;;;;;;12.20;99.90;;;;;;5095117;28;19924;-62
2023/09/02 03:32:51;;;;;;;;;;;12.00;99.90;;;;;;5095054;28;19920;-62
2023/09/02 03:35:16;;;;;;;;;;;11.80;99.90;;;;;;5094694;28;19923;-62
2023/09/02 03:37:45;;;;;;;;;;;12.20;99.90;;;;;;5095289;28;19920;-61
2023/09/02 03:40:10;;;;;;;;;;;11.80;99.90;;;;;;5094812;28;19935;-62
2023/09/02 03:42:36;;;;;;;;;;;11.90;99.90;;;;;;5094583;28;20319;-62
2023/09/02 03:45:02;;;;;;;;;;;11.90;99.90;;;;;;5092676;28;19930;-62
2023/09/02 03:47:32;;;;;;;;;;;11.60;99.90;;;;;;5094882;28;19924;-62
2023/09/02 03:49:58;;;;;;;;;;;11.70;99.90;;;;;;5094683;28;19984;-62
2023/09/02 03:52:24;;;;;;;;;;;12.10;99.90;;;;;;5094749;28;19928;-62
2023/09/02 03:54:49;;;;;;;;;;;11.60;99.90;;;;;;5094712;28;19986;-62
2023/09/02 03:57:15;;;;;;;;;;;11.80;99.90;;;;;;5094601;28;19942;-62
2023/09/02 03:59:40;;;;;;;;;;;11.30;99.90;;;;;;5094623;28;19970;-62
2023/09/02 04:02:06;;;;;;;;;;;11.80;99.90;;;;;;5094284;28;20295;-62
2023/09/02 04:04:32;;;;;;;;;;;11.60;99.90;;;;;;5094441;28;20093;-61
2023/09/02 04:06:58;;;;;;;;;;;11.60;99.90;;;;;;5093785;28;19924;-62
2023/09/02 04:09:24;;;;;;;;;;;11.90;99.90;;;;;;5094403;28;19931;-62
2023/09/02 04:11:49;;;;;;;;;;;11.80;99.90;;;;;;5093307;28;19924;-62
2023/09/02 04:14:15;;;;;;;;;;;11.60;99.90;;;;;;5094297;28;20010;-62
2023/09/02 04:16:40;;;;;;;;;;;11.40;99.90;;;;;;5094229;28;19927;-61
2023/09/02 04:19:06;;;;;;;;;;;11.90;99.90;;;;;;5093884;28;20431;-62
2023/09/02 04:21:31;;;;;;;;;;;11.50;99.90;;;;;;5092971;28;20014;-61
2023/09/02 04:23:57;;;;;;;;;;;11.60;99.90;;;;;;5093960;28;19931;-61
2023/09/02 04:26:23;;;;;;;;;;;11.50;99.90;;;;;;5094217;28;19924;-61
2023/09/02 04:28:49;;;;;;;;;;;11.70;99.90;;;;;;5094005;28;20011;-62
2023/09/02 04:31:14;;;;;;;;;;;11.40;99.90;;;;;;5093973;28;19923;-61
2023/09/02 04:33:40;;;;;;;;;;;11.30;99.90;;;;;;5093935;28;19930;-62
2023/09/02 04:36:05;;;;;;;;;;;11.70;99.90;;;;;;5093913;28;20273;-62
2023/09/02 04:38:31;;;;;;;;;;;11.70;99.90;;;;;;5093798;28;19931;-61
2023/09/02 04:40:57;;;;;;;;;;;11.70;99.90;;;;;;5093730;28;20265;-61
2023/09/02 04:43:23;;;;;;;;;;;11.70;99.90;;;;;;5093670;28;19920;-61
2023/09/02 04:45:48;;;;;;;;;;;11.40;99.90;;;;;;5093554;28;19924;-61
2023/09/02 04:48:15;;;;;;;;;;;11.40;99.90;;;;;;5093602;28;19974;-62
2023/09/02 04:50:41;;;;;;;;;;;11.70;99.90;;;;;;5093562;28;19971;-62
2023/09/02 04:53:07;;;;;;;;;;;11.50;99.90;;;;;;5093541;28;20411;-61
2023/09/02 04:55:33;;;;;;;;;;;11.50;99.90;;;;;;5093468;28;20026;-61
2023/09/02 04:57:59;;;;;;;;;;;11.80;99.90;;;;;;5093404;28;20014;-62
2023/09/02 05:00:27;;;;;;;;;;;11.80;99.90;;;;;;5093362;28;19971;-62
2023/09/02 05:02:53;;;;;;;;;;;11.70;99.90;;;;;;5093577;28;20007;-61
2023/09/02 05:05:20;;;;;;;;;;;11.90;99.90;;;;;;5093130;28;20384;-62
2023/09/02 05:07:45;;;;;;;;;;;11.60;99.90;;;;;;5093163;28;19970;-60
2023/09/02 05:10:12;;;;;;;;;;;11.70;99.90;;;;;;5093207;28;19974;-62
2023/09/02 05:12:37;;;;;;;;;;;11.60;99.90;;;;;;5091849;28;19924;-62
2023/09/02 05:15:03;;;;;;;;;;;11.30;99.90;;;;;;5093100;28;19927;-61
2023/09/02 05:17:32;;;;;;;;;;;11.30;99.90;;;;;;5093035;28;19976;-61
2023/09/02 05:20:03;;;;;;;;;;;11.30;99.90;;;;;;5093066;28;20327;-61
2023/09/02 05:22:28;;;;;;;;;;;11.60;99.90;;;;;;5093074;28;20013;-61
2023/09/02 05:24:54;;;;;;;;;;;11.70;99.90;;;;;;5092918;28;19985;-62
2023/09/02 05:27:20;;;;;;;;;;;11.80;99.90;;;;;;5092936;28;19926;-61
2023/09/02 05:29:45;;;;;;;;;;;11.60;99.90;;;;;;5091686;28;19926;-61
2023/09/02 05:32:12;;;;;;;;;;;11.50;99.90;;;;;;5093170;28;19943;-61
2023/09/02 05:34:38;;;;;;;;;;;11.50;99.90;;;;;;5091723;28;19931;-61
2023/09/02 05:37:03;;;;;;;;;;;11.40;99.90;;;;;;5092907;28;19920;-61
2023/09/02 05:39:29;;;;;;;;;;;11.70;99.90;;;;;;5092682;28;19924;-62
2023/09/02 05:41:54;;;;;;;;;;;11.20;99.90;;;;;;5092574;28;19924;-61
2023/09/02 05:44:20;;;;;;;;;;;11.60;99.90;;;;;;5092220;28;20268;-61
2023/09/02 05:46:46;;;;;;;;;;;11.40;99.90;;;;;;5092360;28;19963;-61
2023/09/02 05:49:12;;;;;;;;;;;11.50;99.90;;;;;;5092531;28;19973;-61
2023/09/02 05:51:38;;;;;;;;;;;11.90;99.90;;;;;;5092489;28;19975;-62
2023/09/02 05:54:04;;;;;;;;;;;11.90;99.90;;;;;;5082028;28;19938;-62
2023/09/02 05:56:31;;;;;;;;;;;11.90;99.90;;;;;;5092220;28;20375;-62
2023/09/02 05:58:57;;;;;;;;;;;12.40;99.90;;;;;;5092061;28;19963;-61
2023/09/02 06:01:22;;;;;;;;;;;12.00;99.90;;;;;;5091477;28;19971;-61
2023/09/02 06:03:48;;;;;;;;;;;12.20;99.90;;;;;;5091940;28;19975;-61
2023/09/02 06:06:14;;;;;;;;;;;12.10;99.90;;;;;;5091464;28;19924;-61
2023/09/02 06:08:39;;;;;;;;;;;15.10;99.90;;;;;;5091083;28;19924;-61
2023/09/02 06:11:05;;;;;;;;;;;12.50;99.90;;;;;;5106439;28;19969;-61
2023/09/02 06:13:31;;;;;;;;;;;12.70;99.90;;;;;;5112130;28;19923;-61
2023/09/02 06:16:02;;;;;;;;;;;12.80;99.90;;;;;;5112534;28;19919;-61
2023/09/02 06:18:27;;;;;;;;;;;12.30;99.90;;;;;;5112241;28;20375;-61
2023/09/02 06:20:53;;;;;;;;;;;12.70;99.90;;;;;;5111859;28;20014;-61
2023/09/02 06:23:19;;;;;;;;;;;13.00;99.90;;;;;;5092919;28;19928;-61
2023/09/02 06:25:45;;;;;;;;;;;13.00;99.90;;;;;;5091339;28;20023;-61
2023/09/02 06:28:10;;;;;;;;;;;13.40;99.90;;;;;;5089602;28;19973;-61
2023/09/02 06:30:36;;;;;;;;;;;13.10;99.90;;;;;;5091323;28;19920;-61
2023/09/02 06:33:02;;;;;;;;;;;13.60;99.90;;;;;;5091438;28;20014;-61
2023/09/02 06:35:30;;;;;;;;;;;13.60;99.90;;;;;;5091669;28;19923;-60
2023/09/02 06:37:56;;;;;;;;;;;13.50;99.90;;;;;;5090865;28;19924;-61
2023/09/02 06:40:21;;;;;;;;;;;14.00;99.90;;;;;;5091914;28;20056;-61
2023/09/02 06:42:47;;;;;;;;;;;13.80;99.90;;;;;;5091610;28;19923;-60
2023/09/02 06:45:12;;;;;;;;;;;14.10;99.90;;;;;;5091105;28;19919;-60
2023/09/02 06:47:38;;;;;;;;;;;14.30;99.90;;;;;;5091647;28;19927;-60
2023/09/02 06:50:04;;;;;;;;;;;14.10;99.90;;;;;;5091602;28;20271;-63
2023/09/02 06:52:30;;;;;;;;;;;14.30;99.90;;;;;;5090539;28;20451;-63
2023/09/02 06:54:55;;;;;;;;;;;14.30;99.90;;;;;;5091872;28;19920;-62
2023/09/02 06:57:21;;;;;;;;;;;14.80;99.90;;;;;;5091946;28;19920;-63
2023/09/02 06:59:47;;;;;;;;;;;14.70;99.90;;;;;;5091198;28;19932;-63
2023/09/02 07:02:12;;;;;;;;;;;15.00;99.90;;;;;;5091398;28;20318;-63
2023/09/02 07:04:38;;;;;;;;;;;14.90;99.90;;;;;;5091348;28;19975;-63
2023/09/02 07:07:03;;;;;;;;;;;15.10;99.90;;;;;;5090708;28;19920;-63
2023/09/02 07:09:29;;;;;;;;;;;15.40;99.90;;;;;;5090096;28;20359;-63
2023/09/02 07:11:55;;;;;;;;;;;15.10;99.90;;;;;;5091633;28;19970;-63
2023/09/02 07:14:21;;;;;;;;;;;15.30;99.90;;;;;;5090831;28;19929;-64
2023/09/02 07:16:46;;;;;;;;;;;15.50;99.90;;;;;;5091329;28;20325;-63
2023/09/02 07:19:12;;;;;;;;;;;15.30;99.90;;;;;;5094502;28;19920;-62
2023/09/02 07:21:38;;;;;;;;;;;15.90;99.90;;;;;;5094618;28;20687;-63
2023/09/02 07:24:03;;;;;;;;;;;15.40;99.90;;;;;;5094612;28;19951;-63
2023/09/02 07:26:32;;;;;;;;;;;15.80;99.90;;;;;;5094948;28;19924;-63
2023/09/02 07:28:58;;;;;;;;;;;15.50;99.90;;;;;;5094407;28;19927;-63
2023/09/02 07:31:23;;;;;;;;;;;16.00;99.90;;;;;;5092107;28;19972;-64
2023/09/02 07:33:49;;;;;;;;;;;16.00;99.90;;;;;;5093959;28;20333;-64
2023/09/02 07:36:15;;;;;;;;;;;16.40;99.90;;;;;;5094477;28;19920;-63
2023/09/02 07:38:40;;;;;;;;;;;16.60;99.90;;;;;;5094924;28;19932;-63
2023/09/02 07:41:06;;;;;;;;;;;16.70;99.90;;;;;;5094914;28;19982;-63
2023/09/02 07:43:32;;;;;;;;;;;16.50;99.90;;;;;;5094900;28;19924;-63
2023/09/02 07:45:58;;;;;;;;;;;16.70;99.90;;;;;;5094806;28;19927;-63
2023/09/02 07:48:24;;;;;;;;;;;16.40;99.90;;;;;;5094834;28;19927;-63
2023/09/02 07:50:50;;;;;;;;;;;16.80;99.90;;;;;;5094802;28;19923;-63
2023/09/02 07:53:15;;;;;;;;;;;16.70;99.90;;;;;;5094757;28;19971;-63
2023/09/02 07:55:41;;;;;;;;;;;17.00;99.90;;;;;;5094658;28;20355;-64
2023/09/02 07:58:06;;;;;;;;;;;17.20;99.90;;;;;;5094568;28;19947;-63
2023/09/02 08:00:32;;;;;;;;;;;17.30;99.90;;;;;;5094499;28;19948;-63
2023/09/02 08:02:58;;;;;;;;;;;17.30;99.90;;;;;;5094467;28;19992;-63
2023/09/02 08:05:24;;;;;;;;;;;17.20;99.90;;;;;;5094250;28;19920;-63
2023/09/02 08:07:50;;;;;;;;;;;17.30;99.90;;;;;;5094395;28;19920;-63
2023/09/02 08:10:15;;;;;;;;;;;17.60;99.90;;;;;;5094651;28;20087;-62
2023/09/02 08:12:42;;;;;;;;;;;17.30;99.90;;;;;;5094411;28;19924;-64
2023/09/02 08:15:09;;;;;;;;;;;17.60;99.90;;;;;;5094285;28;20014;-63
2023/09/02 08:17:36;;;;;;;;;;;17.70;99.90;;;;;;5094290;28;19992;-63
2023/09/02 08:20:02;;;;;;;;;;;17.80;99.90;;;;;;5094207;28;19924;-64
2023/09/02 08:22:28;;;;;;;;;;;18.00;99.90;;;;;;5093870;28;20419;-63
2023/09/02 08:24:54;;;;;;;;;;;18.20;99.90;;;;;;5094054;28;19990;-63
2023/09/02 08:27:19;;;;;;;;;;;18.10;99.90;;;;;;5093987;28;19923;-63
2023/09/02 08:29:45;;;;;;;;;;;17.90;99.90;;;;;;5093433;28;20264;-63
2023/09/02 08:32:11;;;;;;;;;;;18.20;99.90;;;;;;5093970;28;20736;-63
2023/09/02 08:34:36;;;;;;;;;;;18.40;99.90;;;;;;5093832;28;20416;-64
2023/09/02 08:37:03;;;;;;;;;;;18.50;99.90;;;;;;5093862;28;20024;-63
2023/09/02 08:39:29;;;;;;;;;;;18.10;99.90;;;;;;5093357;28;19931;-63
2023/09/02 08:41:55;;;;;;;;;;;18.40;99.90;;;;;;5093390;28;19998;-62
2023/09/02 08:44:21;;;;;;;;;;;18.50;99.90;;;;;;5093875;28;19927;-62
2023/09/02 08:46:48;;;;;;;;;;;18.70;99.90;;;;;;5092912;28;20455;-63
2023/09/02 08:49:17;;;;;;;;;;;18.70;99.90;;;;;;5093503;28;19960;-62
2023/09/02 08:51:43;;;;;;;;;;;18.70;99.90;;;;;;5093484;28;19927;-62
2023/09/02 08:54:10;;;;;;;;;;;18.60;99.90;;;;;;5093508;28;19927;-64
2023/09/02 08:56:40;;;;;;;;;;;18.90;99.90;;;;;;5093403;28;20368;-64
2023/09/02 08:59:05;;;;;;;;;;;19.10;99.90;;;;;;5093394;28;19920;-63
2023/09/02 09:01:31;;;;;;;;;;;19.00;99.90;;;;;;5093326;28;19930;-62
2023/09/02 09:03:57;;;;;;;;;;;19.10;99.90;;;;;;5093228;28;19928;-64
2023/09/02 09:06:24;;;;;;;;;;;19.00;99.90;;;;;;5093168;28;19924;-62
2023/09/02 09:08:51;;;;;;;;;;;18.80;99.90;;;;;;5093113;28;19981;-63
2023/09/02 09:11:17;;;;;;;;;;;19.00;99.90;;;;;;5093068;28;19927;-62
2023/09/02 09:13:48;;;;;;;;;;;19.40;99.90;;;;;;5093108;28;19927;-63
2023/09/02 09:16:19;;;;;;;;;;;19.20;99.90;;;;;;5093228;28;20002;-63
2023/09/02 09:18:45;;;;;;;;;;;19.20;99.90;;;;;;5093052;28;20376;-63
2023/09/02 09:21:11;;;;;;;;;;;19.80;99.90;;;;;;5093064;28;19993;-63
2023/09/02 09:23:36;;;;;;;;;;;19.90;99.90;;;;;;5092617;28;20382;-63
2023/09/02 09:26:06;;;;;;;;;;;19.70;99.90;;;;;;5092974;28;19924;-63
2023/09/02 09:28:47;;;;;;;;;;;19.80;99.90;;;;;;5093106;28;19924;-62
2023/09/02 09:31:16;;;;;;;;;;;19.50;99.90;;;;;;5093091;28;19934;-62
2023/09/02 09:33:53;;;;;;;;;;;19.50;99.90;;;;;;5093134;28;19966;-62
2023/09/02 09:36:21;;;;;;;;;;;19.50;99.90;;;;;;5093053;28;20287;-62
2023/09/02 09:38:54;;;;;;;;;;;19.40;99.90;;;;;;5092591;28;19928;-63
2023/09/02 09:41:19;;;;;;;;;;;19.60;99.90;;;;;;5091833;28;19927;-63
2023/09/02 09:44:05;;;;;;;;;;;19.70;99.90;;;;;;5091558;28;19920;-62
2023/09/02 09:46:43;;;;;;;;;;;19.80;99.90;;;;;;5091743;28;19924;-62
2023/09/02 09:49:29;;;;;;;;;;;19.90;99.90;;;;;;5092595;28;19927;-62
2023/09/02 09:52:00;;;;;;;;;;;19.70;99.90;;;;;;5092544;28;19981;-62
2023/09/02 09:54:40;;;;;;;;;;;19.60;99.90;;;;;;5092519;28;19924;-63
2023/09/02 09:57:06;;;;;;;;;;;19.50;99.90;;;;;;5092539;28;19920;-63
2023/09/02 09:59:33;;;;;;;;;;;19.50;99.90;;;;;;5092603;28;19927;-62
2023/09/02 10:02:00;;;;;;;;;;;19.90;99.90;;;;;;5092438;28;20022;-63
2023/09/02 10:04:26;;;;;;;;;;;19.70;99.90;;;;;;5092476;28;19924;-63
2023/09/02 10:06:56;;;;;;;;;;;19.90;99.90;;;;;;5091946;28;19980;-64
2023/09/02 10:09:22;;;;;;;;;;;20.20;99.90;;;;;;5092274;28;19924;-64
2023/09/02 10:11:47;;;;;;;;;;;20.30;99.90;;;;;;5092254;28;19931;-64
2023/09/02 10:14:14;;;;;;;;;;;20.00;99.90;;;;;;5092572;28;20391;-63
2023/09/02 10:16:40;;;;;;;;;;;20.50;99.90;;;;;;5092172;28;20331;-63
2023/09/02 10:19:05;;;;;;;;;;;20.50;99.90;;;;;;5092199;28;20020;-62
2023/09/02 10:21:33;;;;;;;;;;;20.50;99.90;;;;;;5092319;28;19978;-62
2023/09/02 10:24:01;;;;;;;;;;;20.70;99.90;;;;;;5092133;28;19924;-63
2023/09/02 10:26:26;;;;;;;;;;;20.40;99.90;;;;;;5092326;28;19942;-62
2023/09/02 10:28:54;;;;;;;;;;;20.50;99.90;;;;;;5092389;28;20415;-63
2023/09/02 10:31:20;;;;;;;;;;;21.00;99.90;;;;;;5090577;28;19950;-63
2023/09/02 10:33:49;;;;;;;;;;;20.50;99.90;;;;;;5091002;28;20427;-63
2023/09/02 10:36:17;;;;;;;;;;;20.20;99.90;;;;;;5091806;28;20402;-63
2023/09/02 10:38:44;;;;;;;;;;;20.60;99.90;;;;;;5091943;28;19927;-63
2023/09/02 10:41:13;;;;;;;;;;;20.50;99.90;;;;;;5092047;28;19973;-63
2023/09/02 10:43:39;;;;;;;;;;;20.50;99.90;;;;;;5091883;28;20375;-63
2023/09/02 10:46:05;;;;;;;;;;;20.40;99.90;;;;;;5091944;28;19963;-62
2023/09/02 10:48:32;;;;;;;;;;;20.60;99.90;;;;;;5091860;28;19986;-63
2023/09/02 10:50:58;;;;;;;;;;;20.40;99.90;;;;;;5091822;28;19927;-63
2023/09/02 10:53:42;;;;;;;;;;;20.80;99.90;;;;;;5093946;28;20325;-63
2023/09/02 10:56:08;;;;;;;;;;;20.30;99.90;;;;;;5095937;28;19930;-64
2023/09/02 10:58:47;;;;;;;;;;;20.50;99.90;;;;;;5095837;28;19924;-63
2023/09/02 11:01:12;;;;;;;;;;;20.80;99.90;;;;;;5095745;28;19926;-63
2023/09/02 11:03:43;;;;;;;;;;;20.90;99.90;;;;;;5095769;28;19927;-63
2023/09/02 11:06:11;;;;;;;;;;;20.50;99.90;;;;;;5093916;28;20054;-63
2023/09/02 11:08:41;;;;;;;;;;;20.50;99.90;;;;;;5095655;28;19977;-64
2023/09/02 11:11:07;;;;;;;;;;;20.70;99.90;;;;;;5095436;28;19984;-63
2023/09/02 11:13:32;;;;;;;;;;;21.40;99.90;;;;;;5095811;28;19920;-64
2023/09/02 11:16:10;;;;;;;;;;;21.00;99.90;;;;;;5095467;28;20027;-63
2023/09/02 11:18:39;;;;;;;;;;;21.10;99.90;;;;;;5095398;28;19920;-62
2023/09/02 11:21:05;;;;;;;;;;;20.70;99.90;;;;;;5095411;28;19977;-63
2023/09/02 11:23:32;;;;;;;;;;;20.90;99.90;;;;;;5095126;28;19924;-63
2023/09/02 11:25:59;;;;;;;;;;;20.90;99.90;;;;;;5095144;28;20015;-63
2023/09/02 11:28:26;;;;;;;;;;;21.00;99.90;;;;;;5095204;28;19920;-63
2023/09/02 11:31:20;;;;;;;;;;;21.00;99.90;;;;;;5094009;28;19957;-63
2023/09/02 11:33:47;;;;;;;;;;;21.00;99.90;;;;;;5085583;28;19977;-64
2023/09/02 11:36:17;;;;;;;;;;;21.10;99.90;;;;;;5095037;28;19923;-63
2023/09/02 11:38:42;;;;;;;;;;;20.70;99.90;;;;;;5095080;28;19920;-63
2023/09/02 11:41:08;;;;;;;;;;;21.10;99.90;;;;;;5095029;28;20363;-63
2023/09/02 11:43:34;;;;;;;;;;;21.20;99.90;;;;;;5094922;28;20156;-63
2023/09/02 11:46:01;;;;;;;;;;;21.10;99.90;;;;;;5094622;28;19924;-62
2023/09/02 11:48:27;;;;;;;;;;;21.10;99.90;;;;;;5094782;28;19924;-63
2023/09/02 11:50:53;;;;;;;;;;;21.30;99.90;;;;;;5093900;28;19920;-63
2023/09/02 11:53:18;;;;;;;;;;;21.20;99.90;;;;;;5094890;28;20329;-63
2023/09/02 11:55:44;;;;;;;;;;;21.80;99.90;;;;;;5095060;28;19967;-64
2023/09/02 11:58:14;;;;;;;;;;;21.50;99.90;;;;;;5094843;28;19924;-62
2023/09/02 12:00:43;;;;;;;;;;;21.40;99.90;;;;;;5094704;28;19924;-63
2023/09/02 12:03:09;;;;;;;;;;;21.40;99.90;;;;;;5094572;28;19976;-62
2023/09/02 12:05:45;;;;;;;;;;;21.30;99.90;;;;;;5093234;28;19983;-64
2023/09/02 12:08:10;;;;;;;;;;;21.20;99.90;;;;;;5094455;28;19919;-62
2023/09/02 12:10:37;;;;;;;;;;;21.40;99.90;;;;;;5094430;28;20399;-64
2023/09/02 12:13:02;;;;;;;;;;;21.70;99.90;;;;;;5094329;28;20399;-63
2023/09/02 12:15:31;;;;;;;;;;;21.20;99.90;;;;;;5094434;28;19920;-62
2023/09/02 12:17:57;;;;;;;;;;;21.10;99.90;;;;;;5094276;28;19923;-64
2023/09/02 12:20:23;;;;;;;;;;;21.20;99.90;;;;;;5094284;28;19971;-62
2023/09/02 12:22:48;;;;;;;;;;;21.30;99.90;;;;;;5092977;28;19971;-63
2023/09/02 12:25:21;;;;;;;;;;;21.70;99.90;;;;;;5094054;28;19986;-63
2023/09/02 12:27:47;;;;;;;;;;;21.40;99.90;;;;;;5094170;28;19935;-62
2023/09/02 12:30:13;;;;;;;;;;;21.50;99.90;;;;;;5094381;28;20113;-63
2023/09/02 12:32:39;;;;;;;;;;;21.40;99.90;;;;;;5094071;28;19927;-63
2023/09/02 12:35:08;;;;;;;;;;;21.40;99.90;;;;;;5094017;28;19928;-62
2023/09/02 12:37:34;;;;;;;;;;;21.50;99.90;;;;;;5093668;28;20439;-63
2023/09/02 12:40:13;;;;;;;;;;;21.40;99.90;;;;;;5093830;28;20010;-63
2023/09/02 12:42:40;;;;;;;;;;;21.20;99.90;;;;;;5093788;28;19920;-63
2023/09/02 12:45:06;;;;;;;;;;;21.50;99.90;;;;;;5093750;28;19931;-62
2023/09/02 12:47:32;;;;;;;;;;;21.40;99.90;;;;;;5092188;28;20462;-62
2023/09/02 12:49:58;;;;;;;;;;;21.40;99.90;;;;;;5093660;28;19935;-63
2023/09/02 12:52:25;;;;;;;;;;;21.50;99.90;;;;;;5093596;28;19924;-62
2023/09/02 12:55:04;;;;;;;;;;;21.60;99.90;;;;;;5093648;28;19927;-63
2023/09/02 12:57:31;;;;;;;;;;;21.70;99.90;;;;;;5093549;28;19933;-63
2023/09/02 12:59:57;;;;;;;;;;;21.50;99.90;;;;;;5093453;28;19924;-63
2023/09/02 13:02:23;;;;;;;;;;;21.90;99.90;;;;;;5093417;28;20396;-63
2023/09/02 13:04:49;;;;;;;;;;;21.70;99.90;;;;;;5093179;28;19924;-62
2023/09/02 13:07:19;;;;;;;;;;;21.20;99.90;;;;;;5093252;28;19977;-65
2023/09/02 13:09:45;;;;;;;;;;;23.30;99.90;;;;;;5093292;28;19969;-63
2023/09/02 13:12:10;;;;;;;;;;;21.20;99.90;;;;;;5093292;28;20386;-63
2023/09/02 13:14:38;;;;;;;;;;;21.50;99.90;;;;;;5093211;28;19923;-63
2023/09/02 13:17:03;;;;;;;;;;;21.60;99.90;;;;;;5093007;28;19928;-64
2023/09/02 13:19:29;;;;;;;;;;;21.70;99.90;;;;;;5093073;28;19924;-64
2023/09/02 13:21:55;;;;;;;;;;;21.80;99.90;;;;;;5092966;28;19977;-65
2023/09/02 13:24:23;;;;;;;;;;;22.00;99.90;;;;;;5092938;28;19982;-63
2023/09/02 13:26:49;;;;;;;;;;;21.80;99.90;;;;;;5093059;28;19920;-63
2023/09/02 13:29:18;;;;;;;;;;;21.90;99.90;;;;;;5093011;28;20278;-64
2023/09/02 13:31:45;;;;;;;;;;;21.90;99.90;;;;;;5093041;28;20052;-63
2023/09/02 13:34:30;;;;;;;;;;;21.70;99.90;;;;;;5092868;28;19967;-63
2023/09/02 13:37:01;;;;;;;;;;;21.80;99.90;;;;;;5092912;28;19924;-64
2023/09/02 13:39:27;;;;;;;;;;;21.90;99.90;;;;;;5092849;28;20022;-63
2023/09/02 13:41:53;;;;;;;;;;;22.20;99.90;;;;;;5092862;28;20015;-62
2023/09/02 13:44:18;;;;;;;;;;;22.40;99.90;;;;;;5085571;28;19923;-66
2023/09/02 13:46:44;;;;;;;;;;;21.70;99.90;;;;;;5089448;28;19920;-63
2023/09/02 13:49:11;;;;;;;;;;;22.10;99.90;;;;;;5092814;28;20381;-62
2023/09/02 13:51:36;;;;;;;;;;;21.90;99.90;;;;;;5092687;28;19957;-65
2023/09/02 13:54:02;;;;;;;;;;;22.20;99.90;;;;;;5092376;28;20010;-63
2023/09/02 13:56:27;;;;;;;;;;;22.20;99.90;;;;;;5092268;28;19923;-63
2023/09/02 13:58:53;;;;;;;;;;;22.60;99.90;;;;;;5092360;28;19920;-63
2023/09/02 14:01:19;;;;;;;;;;;22.70;99.90;;;;;;5090734;28;20384;-63
2023/09/02 14:03:44;;;;;;;;;;;22.90;99.90;;;;;;5092229;28;20002;-61
2023/09/02 14:06:10;;;;;;;;;;;22.90;99.90;;;;;;5091386;28;19920;-60
2023/09/02 14:08:36;;;;;;;;;;;23.10;99.90;;;;;;5086324;28;20014;-61
2023/09/02 14:11:03;;;;;;;;;;;22.90;99.90;;;;;;5085573;28;19924;-63
2023/09/02 14:13:37;;;;;;;;;;;22.90;99.90;;;;;;5077492;28;19920;-61
2023/09/02 14:16:03;;;;;;;;;;;22.90;99.90;;;;;;5081212;28;19920;-62